D/T METAR WX W/DIR W/SPE G/SPE TEMP DEWP
23/05/19 13:50 EGNX 231250Z 26010KT 240V310 CAVOK 19/05 Q1015 W (260°) 11.5mph 19°C 5°C
23/05/19 13:20 EGNX 231220Z 25010KT 200V270 9999 FEW030 19/05 Q1015 WSW (250°) 11.5mph 19°C 5°C
23/05/19 12:50 EGNX 231150Z 26010KT 230V290 9999 FEW030 18/05 Q1015 W (260°) 11.5mph 18°C 5°C
23/05/19 12:20 EGNX 231120Z 25010KT 220V280 CAVOK 18/05 Q1016 WSW (250°) 11.5mph 18°C 5°C
23/05/19 11:50 EGNX 231050Z 24009KT CAVOK 17/05 Q1016 WSW (240°) 10.4mph 17°C 5°C
23/05/19 11:20 EGNX 231020Z 24010KT 210V280 9999 FEW030 17/06 Q1016 WSW (240°) 11.5mph 17°C 6°C
23/05/19 10:20 EGNX 230920Z 23007KT 200V270 9999 FEW025 16/07 Q1016 SW (230°) 8.1mph 16°C 7°C
23/05/19 09:50 EGNX 230850Z 23008KT 200V270 9999 FEW025 15/06 Q1017 SW (230°) 9.2mph 15°C 6°C
23/05/19 09:20 EGNX 230820Z 24005KT 200V290 CAVOK 14/08 Q1017 WSW (240°) 5.8mph 14°C 8°C
23/05/19 08:50 EGNX 230750Z 23004KT 190V280 CAVOK 13/09 Q1017 SW (230°) 4.6mph 13°C 9°C
23/05/19 08:20 EGNX 230720Z 22005KT 180V250 CAVOK 12/09 Q1017 SW (220°) 5.8mph 12°C 9°C
23/05/19 07:50 EGNX 230650Z 25005KT CAVOK 12/08 Q1017 WSW (250°) 5.8mph 12°C 8°C
23/05/19 07:20 EGNX 230620Z 28003KT CAVOK 10/08 Q1017 W (280°) 3.5mph 10°C 8°C
23/05/19 06:50 EGNX 230550Z 22004KT CAVOK 10/08 Q1017 SW (220°) 4.6mph 10°C 8°C
23/05/19 06:20 EGNX 230520Z 23004KT CAVOK 09/08 Q1016 SW (230°) 4.6mph 9°C 8°C
23/05/19 05:20 EGNX 230420Z 23005KT 9000 VCFG NSC 09/07 Q1016 VCFG SW (230°) 5.8mph 9°C 7°C
23/05/19 04:50 EGNX 230350Z 24003KT 9000 VCFG NSC 09/08 Q1016 VCFG WSW (240°) 3.5mph 9°C 8°C
23/05/19 03:50 EGNX 230250Z 27004KT CAVOK 09/08 Q1017 W (270°) 4.6mph 9°C 8°C
23/05/19 03:20 EGNX 230220Z 29003KT CAVOK 09/08 Q1017 WNW (290°) 3.5mph 9°C 8°C
23/05/19 02:50 EGNX 230150Z 27005KT CAVOK 10/08 Q1017 W (270°) 5.8mph 10°C 8°C
23/05/19 01:50 EGNX 230050Z 26006KT CAVOK 10/08 Q1017 W (260°) 6.9mph 10°C 8°C
23/05/19 01:20 EGNX 230020Z 26006KT CAVOK 10/08 Q1017 W (260°) 6.9mph 10°C 8°C
23/05/19 00:50 EGNX 222350Z 26007KT CAVOK 11/08 Q1017 W (260°) 8.1mph 11°C 8°C
23/05/19 00:20 EGNX 222320Z 26006KT CAVOK 12/08 Q1017 W (260°) 6.9mph 12°C 8°C
22/05/19 23:50 EGNX 222250Z 27004KT CAVOK 12/08 Q1018 W (270°) 4.6mph 12°C 8°C
22/05/19 23:20 EGNX 222220Z 27004KT CAVOK 13/08 Q1018 W (270°) 4.6mph 13°C 8°C
22/05/19 22:50 EGNX 222150Z VRB01KT CAVOK 13/08 Q1018 N (0°) 1.2mph 13°C 8°C
22/05/19 22:20 EGNX 222120Z 30005KT CAVOK 13/08 Q1018 WNW (300°) 5.8mph 13°C 8°C
22/05/19 21:50 EGNX 222050Z 30007KT CAVOK 13/09 Q1018 WNW (300°) 8.1mph 13°C 9°C
22/05/19 21:20 EGNX 222020Z 32006KT CAVOK 15/09 Q1017 NW (320°) 6.9mph 15°C 9°C
22/05/19 20:50 EGNX 221950Z 27008KT CAVOK 15/06 Q1017 W (270°) 9.2mph 15°C 6°C
22/05/19 20:20 EGNX 221920Z 27008KT CAVOK 16/06 Q1017 W (270°) 9.2mph 16°C 6°C
22/05/19 19:20 EGNX 221820Z 27009KT CAVOK 17/06 Q1017 W (270°) 10.4mph 17°C 6°C
22/05/19 18:20 EGNX 221720Z 25009KT 220V290 CAVOK 19/06 Q1017 WSW (250°) 10.4mph 19°C 6°C
22/05/19 17:50 EGNX 221650Z 24011KT CAVOK 18/04 Q1017 WSW (240°) 12.7mph 18°C 4°C
22/05/19 17:20 EGNX 221620Z 23011KT CAVOK 19/04 Q1017 SW (230°) 12.7mph 19°C 4°C
22/05/19 16:20 EGNX 221520Z 25010KT 9999 FEW040 19/04 Q1018 WSW (250°) 11.5mph 19°C 4°C
22/05/19 15:50 EGNX 221450Z 24011KT 210V280 9999 FEW030 20/04 Q1018 WSW (240°) 12.7mph 20°C 4°C
22/05/19 14:50 EGNX 221350Z 25009KT 210V280 9999 FEW020 19/04 Q1018 WSW (250°) 10.4mph 19°C 4°C
22/05/19 14:20 EGNX 221320Z 25013KT CAVOK 18/04 Q1018 WSW (250°) 15.0mph 18°C 4°C
22/05/19 13:50 EGNX 221250Z 28010KT CAVOK 18/04 Q1018 W (280°) 11.5mph 18°C 4°C
22/05/19 13:20 EGNX 221220Z 26012KT CAVOK 17/04 Q1019 W (260°) 13.8mph 17°C 4°C
22/05/19 12:50 EGNX 221150Z 24012KT 200V270 9999 FEW028 17/05 Q1019 WSW (240°) 13.8mph 17°C 5°C
22/05/19 12:20 EGNX 221120Z 24013KT 9999 SCT049 17/05 Q1019 WSW (240°) 15.0mph 17°C 5°C
22/05/19 11:20 EGNX 221020Z 24011KT CAVOK 15/05 Q1019 WSW (240°) 12.7mph 15°C 5°C
22/05/19 10:50 EGNX 220950Z 23009KT CAVOK 15/05 Q1019 SW (230°) 10.4mph 15°C 5°C
22/05/19 09:20 EGNX 220820Z 23007KT CAVOK 13/05 Q1020 SW (230°) 8.1mph 13°C 5°C
22/05/19 08:50 EGNX 220750Z 22007KT CAVOK 12/05 Q1020 SW (220°) 8.1mph 12°C 5°C